This is the latest recevied weather packets stored in our database for station/object XW7RMR. If no packets are shown the sender has not sent any weather packets the latest 10 day(s).
| Time | Temp. | Humidity | Pressure | Rain* | Wind** | Luminosity | Snow |
|---|---|---|---|---|---|---|---|
| 1777676922 | 22.78° C | 52% | 1013.3 hPa | 0 mm | - | 566 W/m² | - |
| 1777676621 | 23.33° C | 52% | 1013.2 hPa | 0 mm | - | 572 W/m² | - |
| 1777676318 | 24.44° C | 50% | 1013.4 hPa | 0 mm | - | 494 W/m² | - |
| 1777676016 | 23.89° C | 50% | 1013.4 hPa | 0 mm | - | 529 W/m² | - |
| 1777675711 | 23.33° C | 53% | 1013.4 hPa | 0 mm | - | 567 W/m² | - |
| 1777675409 | 23.89° C | 51% | 1013.6 hPa | 0 mm | - | 596 W/m² | - |
| 1777675105 | 23.89° C | 52% | 1013.5 hPa | 0 mm | - | 536 W/m² | - |
| 1777674801 | 23.89° C | 51% | 1013.7 hPa | 0 mm | - | 586 W/m² | - |
| 1777674498 | 23.89° C | 51% | 1013.8 hPa | 0 mm | - | 588 W/m² | - |
| 1777674196 | 22.78° C | 52% | 1013.9 hPa | 0 mm | - | 608 W/m² | - |
| 1777673892 | 23.33° C | 51% | 1013.7 hPa | 0 mm | - | 630 W/m² | - |
| 1777673589 | 23.33° C | 50% | 1013.9 hPa | 0 mm | - | 641 W/m² | - |
| 1777673287 | 23.33° C | 49% | 1013.8 hPa | 0 mm | - | 617 W/m² | - |
| 1777672983 | 22.78° C | 51% | 1013.9 hPa | 0 mm | - | 658 W/m² | - |
| 1777672680 | 22.78° C | 52% | 1014 hPa | 0 mm | - | 685 W/m² | - |
| 1777672376 | 22.22° C | 53% | 1014.1 hPa | 0 mm | - | 701 W/m² | - |
| 1777672071 | 22.22° C | 52% | 1014.1 hPa | 0 mm | - | 684 W/m² | - |
| 1777671767 | 22.78° C | 52% | 1014.2 hPa | 0 mm | - | 663 W/m² | - |
| 1777671463 | 22.22° C | 51% | 1014.3 hPa | 0 mm | - | 671 W/m² | - |
| 1777671160 | 22.78° C | 52% | 1014.3 hPa | 0 mm | - | 647 W/m² | - |
| 1777670856 | 22.78° C | 54% | 1014.3 hPa | 0 mm | - | 684 W/m² | - |
| 1777670553 | 22.78° C | 52% | 1014.3 hPa | 0 mm | - | 687 W/m² | - |
| 1777670250 | 21.67° C | 54% | 1014.3 hPa | 0 mm | - | 702 W/m² | - |
| 1777669947 | 21.67° C | 54% | 1014.2 hPa | 0 mm | - | 650 W/m² | - |
| 1777669644 | 22.22° C | 53% | 1014.5 hPa | 0 mm | - | 650 W/m² | - |
* Rain latest hour (hover to see other rain measurements)
** Current wind speed in m/s (hover to see current wind gust speed)